Rochelle, IL

6:32 PM CST on November 14, 2019 (GMT -0600)
Rochelle

Weather History for KRPJ - August, 2019

Change the Weather History Date:

Wednesday, August 28, 2019

  Actual Average (KRFD) Record (KRFD)
Temperature  
Mean Temperature 62 °F -  
Max Temperature 73 °F 81 °F 97 °F (1955)
Min Temperature 52 °F 59 °F 38 °F (1915)
Degree Days  
Heating Degree Days 2    
Growing Degree Days 12 (Base 50)    
Moisture  
Dew Point 55 °F    
Average Humidity 80    
Maximum Humidity 100    
Minimum Humidity 52    
Precipitation  
Precipitation 0.00 in - - ()
Sea Level Pressure  
Sea Level Pressure 29.96 in    
Wind  
Wind Speed 9 mph ()    
Max Wind Speed 24 mph    
Max Gust Speed 32 mph    
Visibility 10.0 miles    
Events      
Averages and records for this station are not official NWS values.
T = Trace of Precipitation, MM = Missing Value Source: Averaged Metar Reports

Daily Weather History Graph

Daily Weather History Graph

Search for Another Location

Airport or City:

Astronomy

Aug. 28, 2019 Rise Set
Actual Time 6:17 AM CDT 7:36 PM CDT
Civil Twilight 5:48 AM CDT 8:05 PM CDT
Nautical Twilight 5:13 AM CDT 8:40 PM CDT
Astronomical Twilight 4:37 AM CDT 9:16 PM CDT
Moon 3:46 AM CDT (8/28) 6:51 PM CDT (8/28)
Length of Visible Light 14h 16m
Length of Day
13h 19m
Waning Crescent, 4% of the Moon is Illuminated
Aug 28
Waning Crescent
Aug 30
New
Sep 5
First Quarter
Sep 13
Full
Sep 21
Last Quarter

Hourly Weather History & Observations

Time (CDT) Temp. Dew Point Humidity Pressure Visibility Wind Dir Wind Speed Gust Speed Precip Events Conditions
12:15 AM 57.2 °F 55.8 °F 95% 29.93 in 10.0 mi SW 4.6 mph - N/A   Clear
12:35 AM 56.7 °F 55.4 °F 96% 29.93 in 10.0 mi SW 4.6 mph - N/A   Clear
12:55 AM 55.8 °F 55.2 °F 98% 29.93 in 10.0 mi SW 4.6 mph - N/A   Clear
1:15 AM 55.8 °F 55.0 °F 97% 29.92 in 10.0 mi SW 5.8 mph - N/A   Clear
1:35 AM 55.9 °F 54.9 °F 96% 29.92 in 10.0 mi WSW 5.8 mph - N/A   Clear
1:55 AM 56.3 °F 54.9 °F 95% 29.92 in 10.0 mi WSW 5.8 mph - N/A   Clear
2:15 AM 56.3 °F 54.7 °F 94% 29.92 in 10.0 mi WSW 5.8 mph - N/A   Clear
2:35 AM 55.6 °F 54.3 °F 96% 29.93 in 10.0 mi WSW 5.8 mph - N/A   Clear
2:55 AM 55.4 °F 54.1 °F 96% 29.93 in 10.0 mi WSW 4.6 mph - N/A   Clear
3:15 AM 54.9 °F 53.8 °F 96% 29.93 in 10.0 mi WSW 4.6 mph - N/A   Clear
3:35 AM 54.5 °F 53.4 °F 96% 29.93 in 10.0 mi WSW 5.8 mph - N/A   Clear
3:50 AM 54.1 °F 53.2 °F 97% 29.93 in 10.0 mi WSW 4.6 mph - N/A   Clear
4:15 AM 54.0 °F 53.2 °F 97% 29.93 in 10.0 mi WSW 5.8 mph - N/A   Clear
4:35 AM 54.0 °F 52.9 °F 96% 29.93 in 10.0 mi WSW 5.8 mph - N/A   Clear
4:55 AM 53.6 °F 52.7 °F 97% 29.94 in 10.0 mi WSW 6.9 mph - N/A   Clear
5:15 AM 53.6 °F 52.7 °F 97% 29.94 in 10.0 mi WSW 8.1 mph - N/A   Clear
5:55 AM 53.1 °F 52.3 °F 97% 29.95 in 10.0 mi WSW 5.8 mph - N/A   Clear
6:15 AM 52.7 °F 52.0 °F 97% 29.95 in 10.0 mi WSW 5.8 mph - N/A   Clear
6:35 AM 52.3 °F 52.0 °F 99% 29.95 in 10.0 mi WSW 4.6 mph - N/A   Clear
6:55 AM 52.9 °F 52.7 °F 99% 29.95 in 10.0 mi SW 5.8 mph - N/A   Clear
7:15 AM 54.0 °F 53.2 °F 97% 29.96 in 10.0 mi WSW 5.8 mph - N/A   Clear
7:35 AM 55.4 °F 54.3 °F 96% 29.96 in 10.0 mi West 9.2 mph - N/A   Clear
7:55 AM 57.2 °F 54.5 °F 91% 29.96 in 10.0 mi West 8.1 mph - N/A   Clear
8:15 AM 59.0 °F 55.0 °F 87% 29.97 in 10.0 mi WSW 11.5 mph - N/A   Clear
8:35 AM 60.8 °F 54.9 °F 81% 29.97 in 10.0 mi West 12.7 mph - N/A   Clear
8:55 AM 61.7 °F 55.0 °F 79% 29.97 in 10.0 mi West 13.8 mph - N/A   Clear
9:15 AM 62.6 °F 55.6 °F 78% 29.97 in 10.0 mi West 13.8 mph - N/A   Clear
9:35 AM 63.7 °F 55.9 °F 76% 29.97 in 10.0 mi West 12.7 mph - N/A   Clear
9:55 AM 64.8 °F 56.3 °F 74% 29.98 in 10.0 mi WSW 13.8 mph - N/A   Clear
10:15 AM 66.4 °F 57.0 °F 72% 29.98 in 10.0 mi West 15.0 mph - N/A   Clear
10:35 AM 66.9 °F 55.8 °F 67% 29.99 in 10.0 mi West 16.1 mph 21.9 mph N/A   Clear
10:55 AM 67.3 °F 56.7 °F 69% 29.98 in 10.0 mi West 15.0 mph 23.0 mph N/A   Clear
11:15 AM 68.4 °F 56.5 °F 66% 29.98 in 10.0 mi West 17.3 mph - N/A   Clear
11:35 AM 69.1 °F 56.1 °F 63% 29.98 in 10.0 mi West 18.4 mph - N/A   Clear
11:55 AM 69.8 °F 56.7 °F 63% 29.98 in 10.0 mi West 17.3 mph - N/A   Clear
12:15 PM 70.5 °F 56.1 °F 60% 29.98 in 10.0 mi West 19.6 mph 25.3 mph N/A   Clear
12:55 PM 71.4 °F 56.3 °F 59% 29.98 in 10.0 mi West 23.0 mph 32.2 mph N/A   Mostly Cloudy
1:15 PM 70.2 °F 55.0 °F 59% 29.97 in 10.0 mi West 18.4 mph 24.2 mph N/A   Scattered Clouds
1:35 PM 71.4 °F 55.6 °F 57% 29.98 in 10.0 mi West 24.2 mph 32.2 mph N/A   Scattered Clouds
1:55 PM 72.1 °F 55.8 °F 56% 29.98 in 10.0 mi West 18.4 mph - N/A   Scattered Clouds
2:15 PM 72.5 °F 55.6 °F 55% 29.97 in 10.0 mi West 20.7 mph 26.5 mph N/A   Scattered Clouds
2:35 PM 72.3 °F 55.2 °F 55% 29.97 in 10.0 mi West 18.4 mph 28.8 mph N/A   Scattered Clouds
2:55 PM 72.7 °F 54.3 °F 52% 29.97 in 10.0 mi West 19.6 mph 26.5 mph N/A   Scattered Clouds
3:15 PM 72.9 °F 54.9 °F 53% 29.97 in 10.0 mi West 19.6 mph 24.2 mph N/A   Scattered Clouds
3:35 PM 73.4 °F 55.2 °F 53% 29.97 in 10.0 mi West 19.6 mph 25.3 mph N/A   Clear
3:55 PM 73.4 °F 55.8 °F 54% 29.97 in 10.0 mi West 23.0 mph 27.6 mph N/A   Scattered Clouds
4:15 PM 73.0 °F 54.5 °F 52% 29.97 in 10.0 mi West 21.9 mph 28.8 mph N/A   Scattered Clouds
4:35 PM 72.7 °F 54.9 °F 53% 29.97 in 10.0 mi West 23.0 mph 28.8 mph N/A   Clear
4:55 PM 72.7 °F 54.3 °F 52% 29.96 in 10.0 mi West 20.7 mph 29.9 mph N/A   Clear
5:15 PM 72.5 °F 54.9 °F 54% 29.96 in 10.0 mi West 19.6 mph 27.6 mph N/A   Clear
5:35 PM 72.3 °F 54.0 °F 52% 29.96 in 10.0 mi West 18.4 mph 26.5 mph N/A   Clear
5:55 PM 72.0 °F 54.9 °F 55% 29.96 in 10.0 mi West 15.0 mph 21.9 mph N/A   Clear
6:35 PM 70.7 °F 55.9 °F 59% 29.96 in 10.0 mi West 12.7 mph 18.4 mph N/A   Clear
6:55 PM 69.4 °F 56.3 °F 63% 29.96 in 10.0 mi West 9.2 mph - N/A   Clear
7:15 PM 67.8 °F 57.2 °F 69% 29.96 in 10.0 mi West 8.1 mph - N/A   Clear
7:35 PM 66.0 °F 57.4 °F 74% 29.96 in 10.0 mi WSW 6.9 mph - N/A   Clear
7:55 PM 64.0 °F 57.2 °F 78% 29.96 in 10.0 mi WSW 8.1 mph - N/A   Clear
8:15 PM 61.5 °F 57.7 °F 87% 29.97 in 10.0 mi WSW 6.9 mph - N/A   Clear
8:35 PM 59.9 °F 57.6 °F 92% 29.97 in 10.0 mi SW 6.9 mph - N/A   Clear
8:55 PM 58.5 °F 57.2 °F 96% 29.98 in 10.0 mi SW 4.6 mph - N/A   Clear
9:20 PM 58.1 °F 56.7 °F 95% 29.98 in 10.0 mi Calm Calm - N/A   Clear
9:35 PM 57.2 °F 56.3 °F 97% 29.99 in 10.0 mi SW 4.6 mph - N/A   Clear
9:55 PM 56.8 °F 56.3 °F 98% 29.99 in 10.0 mi SSW 5.8 mph - N/A   Clear
10:15 PM 56.5 °F 56.3 °F 99% 29.99 in 10.0 mi Calm Calm - N/A   Clear
10:35 PM 55.6 °F 55.4 °F 99% 29.99 in 10.0 mi SW 4.6 mph - N/A   Clear
10:55 PM 55.2 °F 55.2 °F 100% 30.00 in 10.0 mi Calm Calm - N/A   Clear
11:15 PM 55.6 °F 55.2 °F 99% 30.00 in 10.0 mi Calm Calm - N/A   Clear
11:35 PM 54.1 °F 54.0 °F 99% 30.00 in 10.0 mi Calm Calm - N/A   Clear
11:55 PM 54.5 °F 54.5 °F 100% 30.00 in 10.0 mi SW 4.6 mph - N/A   Clear